Latest Coastal Weather Observations for Cape Otway

IDT60701

Issued at 9:22 pm EDT Friday 24 February 2017 (issued every 10 minutes, with the page automatically refreshed every 10 minutes)

About coastal observations | Map of coastal stations | Coastal observations for TAS | Marine services | Other Formats
Station Details ID: 090015 Name: CAPE OTWAY LIGHTHOUSE Lat: -38.86 Lon: 143.51 Height: 82.0 m
Data from the previous 72 hours. | See also: Recent months at Cape Otway
Date/Time
EDT
Temp
°C
Wind Pressure Rain since
9am
mm
Weather Cloud Vis
km
Sea
Height
m
Swell
Dir  Spd
kts
Gust
kts
hPa Trend Height
m
Period
s
Dir
24/09:00pm 15.3 SW 9 12 1026.5 - 0.0 - - - - - - -
24/08:30pm 15.6 SSW 11 17 1026.1 - 0.0 - - - - - - -
24/08:00pm 16.1 SW 8 12 1026.0 - 0.0 - - - - - - -
24/07:30pm 15.8 SSW 9 12 1025.9 - 0.0 - - - - - - -
24/07:00pm 16.0 SSW 13 16 1025.8 - 0.0 - - - - - - -
24/06:30pm 16.9 SSW 11 15 1025.8 - 0.0 - - - - - - -
24/06:00pm 16.5 SW 12 15 1025.7 - 0.0 - - - - - - -
24/05:30pm 16.6 SSW 13 18 1025.5 - 0.0 - - - - - - -
24/05:00pm 17.5 SW 12 16 1025.4 - 0.0 - - - - - - -
24/04:30pm 17.7 SW 12 16 1025.4 - 0.0 - - - - - - -
24/04:00pm 18.1 WSW 10 13 1025.5 - 0.0 - - - - - - -
24/03:30pm 17.7 SW 11 15 1025.8 - 0.0 - - - - - - -
24/03:00pm 16.9 SW 11 15 1025.9 - 0.0 - - - - - - -
24/02:30pm 17.4 SW 11 15 1026.0 - 0.0 - - - - - - -
24/02:00pm 16.8 SW 12 16 1026.1 - 0.0 - - - - - - -
24/01:30pm 16.2 SW 15 21 1026.0 - 0.0 - - - - - - -
24/01:00pm 16.7 SW 13 17 1026.1 - 0.0 - - - - - - -
24/12:30pm 16.5 SW 12 18 1026.1 - 0.0 - - - - - - -
24/12:00pm 16.7 SW 16 23 1026.0 - 0.0 - - - - - - -
24/11:30am 16.4 SW 14 18 1026.0 - 0.0 - - - - - - -
24/11:00am 16.4 WSW 12 16 1026.0 - 0.0 - - - - - - -
24/10:30am 16.1 WSW 8 10 1025.8 - 0.0 - - - - - - -
24/10:00am 15.9 SW 11 14 1025.7 - 0.0 - - - - - - -
24/09:30am 15.7 WSW 10 14 1025.5 - 0.0 - - - - - - -
24/09:00am 15.5 SW 13 17 1025.2 - 0.0 - - - - - - -
24/08:30am 15.4 SW 10 13 1024.8 - 0.0 - - - - - - -
24/08:00am 15.3 SW 12 19 1024.4 - 0.0 - - - - - - -
24/07:30am 15.3 SSW 11 15 1024.0 - 0.0 - - - - - - -
24/07:00am 15.1 WSW 8 11 1023.8 - 0.0 - - - - - - -
24/06:30am 15.0 WSW 9 15 1023.6 - 0.0 - - - - - - -
24/06:00am 14.9 WSW 11 17 1023.5 - 0.0 - - - - - - -
24/05:30am 14.8 SW 7 10 1023.4 - 0.0 - - - - - - -
24/05:00am 14.8 SW 12 18 1023.2 - 0.0 - - - - - - -
24/04:30am 14.8 SW 11 17 1023.2 - 0.0 - - - - - - -
24/04:00am 14.9 SW 14 18 1023.0 - 0.0 - - - - - - -
24/03:30am 15.0 SW 13 18 1022.9 - 0.0 - - - - - - -
24/03:00am 15.1 SW 12 18 1023.0 - 0.0 - - - - - - -
24/02:30am 14.9 SW 13 19 1022.9 - 0.0 - - - - - - -
24/02:00am 15.1 SW 13 19 1023.2 - 0.0 - - - - - - -
24/01:30am 15.3 SW 13 17 1023.6 - 0.0 - - - - - - -
24/01:00am 15.1 SW 14 19 1023.5 - 0.0 - - - - - - -
24/12:30am 15.1 SW 14 19 1023.4 - 0.0 - - - - - - -
24/12:00am 15.3 SSW 11 18 1023.3 - 0.0 - - - - - - -
 
Date/Time
EDT
Temp
°C
Wind Pressure Rain since
9am
mm
Weather Cloud Vis
km
Sea
Height
m
Swell
Dir  Spd
kts
Gust
kts
hPa Trend Height
m
Period
s
Dir
23/11:30pm 15.2 SW 10 14 1023.4 - 0.0 - - - - - - -
23/11:00pm 15.0 SW 9 15 1023.5 - 0.0 - - - - - - -
23/10:30pm 15.2 SSW 10 16 1023.3 - 0.0 - - - - - - -
23/10:00pm 15.0 SW 11 15 1022.9 - 0.0 - - - - - - -
23/09:30pm 14.9 SW 13 18 1022.6 - 0.0 - - - - - - -
23/09:00pm 14.9 SW 13 20 1022.0 - 0.0 - - - - - - -
23/08:30pm 14.9 SW 13 18 1021.7 - 0.0 - - - - - - -
23/08:00pm 15.0 SW 15 19 1021.4 - 0.0 - - - - - - -
23/07:30pm 15.7 SW 11 14 1021.1 - 0.0 - - - - - - -
23/07:00pm 16.2 WSW 12 18 1020.7 - 0.0 - - - - - - -
23/06:30pm 16.3 WSW 11 15 1020.6 - 0.0 - - - - - - -
23/06:00pm 16.5 WSW 13 17 1020.3 - 0.0 - - - - - - -
23/05:30pm 16.2 WSW 13 18 1020.1 - 0.0 - - - - - - -
23/05:00pm 16.6 WSW 11 15 1019.6 - 0.0 - - - - - - -
23/04:30pm 17.3 WSW 12 17 1019.3 - 0.0 - - - - - - -
23/04:00pm 17.4 W 13 17 1019.1 - 0.0 - - - - - - -
23/03:30pm 17.4 W 12 16 1018.8 - 0.0 - - - - - - -
23/03:00pm 18.5 W 11 15 1018.8 - 0.0 - - - - - - -
23/02:30pm 19.2 W 12 16 1018.6 - 0.0 - - - - - - -
23/02:00pm 18.8 W 13 16 1018.3 - 0.0 - - - - - - -
23/01:30pm 18.5 W 13 17 1018.3 - 0.0 - - - - - - -
23/01:00pm 17.3 W 15 21 1018.2 - 0.0 - - - - - - -
23/12:30pm 18.7 W 15 19 1018.1 - 0.0 - - - - - - -
23/12:00pm 18.4 W 14 19 1018.1 - 0.0 - - - - - - -
23/11:30am 18.4 W 15 19 1017.8 - 0.0 - - - - - - -
23/11:00am 17.8 W 15 21 1017.3 - 0.0 - - - - - - -
23/10:30am 17.5 W 16 22 1016.9 - 0.0 - - - - - - -
23/10:00am 17.4 W 16 22 1016.4 - 0.0 - - - - - - -
23/09:30am 17.5 W 14 22 1016.0 - 0.0 - - - - - - -
23/09:06am 17.4 W 15 25 1015.5 - 0.0 - - - - - - -
23/09:00am 17.3 W 15 22 1015.4 - 0.0 - - - - - - -
23/08:30am 17.4 WNW 16 22 1014.8 - 0.0 - - - - - - -
23/08:00am 17.2 W 17 27 1014.2 - 0.0 - - - - - - -
23/07:49am 17.2 WNW 17 27 1014.0 - 0.0 - - - - - - -
23/07:30am 16.6 WNW 14 22 1013.8 - 0.0 - - - - - - -
23/07:00am 16.8 WNW 14 23 1013.3 - 0.0 - - - - - - -
23/06:30am 16.6 WNW 13 23 1012.6 - 0.0 - - - - - - -
23/06:17am 16.8 NW 15 25 1012.5 - 0.0 - - - - - - -
23/06:00am 17.3 NW 13 20 1012.2 - 0.0 - - - - - - -
23/05:33am 17.5 NW 15 26 1011.9 - 0.0 - - - - - - -
23/05:30am 17.6 NW 15 21 1011.9 - 0.0 - - - - - - -
23/05:00am 17.6 WNW 13 20 1011.5 - 0.0 - - - - - - -
23/04:30am 17.8 WNW 13 21 1011.2 - 0.0 - - - - - - -
23/04:00am 17.9 NW 12 20 1011.0 - 0.0 - - - - - - -
23/03:30am 18.0 WNW 13 23 1010.6 - 0.0 - - - - - - -
23/03:00am 18.1 NW 13 19 1010.6 - 0.0 - - - - - - -
23/02:30am 18.2 NW 12 21 1010.5 - 0.0 - - - - - - -
23/02:00am 18.3 NW 12 18 1010.5 - 0.0 - - - - - - -
23/01:37am 18.7 NW 15 25 1010.5 - 0.0 - - - - - - -
23/01:30am 18.5 NW 12 19 1010.5 - 0.0 - - - - - - -
23/01:00am 18.7 NW 13 20 1010.2 - 0.0 - - - - - - -
23/12:30am 18.7 NW 14 20 1010.3 - 0.0 - - - - - - -
23/12:00am 18.7 WNW 12 17 1010.3 - 0.0 - - - - - - -
 
Date/Time
EDT
Temp
°C
Wind Pressure Rain since
9am
mm
Weather Cloud Vis
km
Sea
Height
m
Swell
Dir  Spd
kts
Gust
kts
hPa Trend Height
m
Period
s
Dir
22/11:30pm 18.6 WNW 12 16 1010.2 - 0.0 - - - - - - -
22/11:00pm 18.3 WNW 10 14 1010.3 - 0.0 - - - - - - -
22/10:30pm 18.4 WNW 9 14 1010.1 - 0.0 - - - - - - -
22/10:00pm 18.6 WNW 10 13 1009.6 - 0.0 - - - - - - -
22/09:30pm 18.6 WNW 12 17 1009.7 - 0.0 - - - - - - -
22/09:00pm 18.6 WNW 14 19 1009.4 - 0.0 - - - - - - -
22/08:30pm 18.7 WNW 14 18 1009.1 - 0.0 - - - - - - -
22/08:00pm 19.2 WNW 14 20 1009.0 - 0.0 - - - - - - -
22/07:30pm 20.3 WNW 18 27 1008.7 - 0.0 - - - - - - -
22/07:26pm 20.5 WNW 17 27 1008.7 - 0.0 - - - - - - -
22/07:00pm 21.8 NW 13 19 1008.0 - 0.0 - - - - - - -
22/06:35pm 22.7 W 18 28 1006.7 - 0.0 - - - - - - -
22/06:30pm 23.2 W 19 32 1006.2 - 0.0 - - - - - - -
22/06:24pm 26.7 NW 16 32 1005.6 - 0.0 - - - - - - -
22/06:22pm 32.3 NNW 14 32 1005.6 - 0.0 - - - - - - -
22/06:00pm 33.2 NNW 12 20 1005.3 - 0.0 - - - - - - -
22/05:35pm 33.1 NNW 15 25 1005.3 - 0.0 - - - - - - -
22/05:30pm 33.1 NNW 14 25 1005.4 - 0.0 - - - - - - -
22/05:12pm 33.0 N 15 26 1005.9 - 0.0 - - - - - - -
22/05:00pm 32.9 N 12 21 1006.1 - 0.0 - - - - - - -
22/04:30pm 32.6 N 12 24 1006.6 - 0.0 - - - - - - -
22/04:07pm 32.5 NNW 15 28 1007.2 - 0.0 - - - - - - -
22/04:00pm 32.0 NNW 11 19 1007.5 - 0.0 - - - - - - -
22/03:30pm 30.7 N 14 24 1007.9 - 0.0 - - - - - - -
22/03:00pm 31.3 N 14 21 1008.6 - 0.0 - - - - - - -
22/02:30pm 30.8 N 13 21 1009.2 - 0.0 - - - - - - -
22/02:00pm 30.2 NNW 8 18 1009.7 - 0.0 - - - - - - -
22/01:30pm 26.7 ENE 8 18 1009.7 - 0.0 - - - - - - -
22/01:00pm 27.0 ENE 11 17 1010.0 - 0.0 - - - - - - -
22/12:30pm 27.4 NNE 12 21 1010.7 - 0.0 - - - - - - -
22/12:00pm 27.3 NNE 12 19 1011.4 - 0.0 - - - - - - -
22/11:30am 26.2 N 14 23 1011.9 - 0.0 - - - - - - -
22/11:00am 24.8 N 16 23 1012.2 - 0.0 - - - - - - -
22/10:49am 24.7 N 15 25 1012.3 - 0.0 - - - - - - -
22/10:30am 24.8 N 17 26 1012.2 - 0.0 - - - - - - -
22/10:10am 24.6 N 16 26 1012.4 - 0.0 - - - - - - -
22/10:00am 24.1 N 18 26 1012.2 - 0.0 - - - - - - -
22/09:30am 23.2 N 16 23 1012.5 - 0.0 - - - - - - -
22/09:00am 21.9 N 16 23 1012.9 - 0.0 - - - - - - -
22/08:30am 20.8 N 17 26 1013.1 - 0.0 - - - - - - -
22/08:00am 20.5 N 16 22 1013.1 - 0.0 - - - - - - -
22/07:30am 19.9 N 15 21 1013.1 - 0.0 - - - - - - -
22/07:00am 19.2 N 14 20 1012.9 - 0.0 - - - - - - -
22/06:30am 15.8 NNE 13 16 1013.0 - 0.0 - - - - - - -
22/06:00am 15.9 NE 13 18 1012.9 - 0.0 - - - - - - -
22/05:30am 16.1 NE 14 18 1013.2 - 0.0 - - - - - - -
22/05:00am 15.2 NE 13 17 1013.2 - 0.0 - - - - - - -
22/04:30am 15.4 NE 15 19 1013.6 - 0.0 - - - - - - -
22/04:00am 15.6 NE 14 19 1014.0 - 0.0 - - - - - - -
22/03:30am 15.5 NE 14 19 1014.5 - 0.0 - - - - - - -
22/03:00am 15.4 NE 14 18 1014.8 - 0.0 - - - - - - -
22/02:30am 15.6 NE 16 24 1015.1 - 0.0 - - - - - - -
22/02:00am 15.6 NE 17 24 1015.6 - 0.0 - - - - - - -
22/01:30am 15.5 NE 16 23 1016.0 - 0.0 - - - - - - -
22/01:00am 15.5 NE 16 26 1016.3 - 0.0 - - - - - - -
22/12:53am 15.5 NE 16 26 1016.4 - 0.0 - - - - - - -
22/12:30am 15.4 ENE 16 23 1016.7 - 0.0 - - - - - - -
22/12:00am 15.4 NE 17 25 1016.8 - 0.0 - - - - - - -
 
Date/Time
EDT
Temp
°C
Wind Pressure Rain since
9am
mm
Weather Cloud Vis
km
Sea
Height
m
Swell
Dir  Spd
kts
Gust
kts
hPa Trend Height
m
Period
s
Dir
21/11:30pm 15.3 ENE 15 23 1017.4 - 0.0 - - - - - - -
21/11:00pm 15.2 ENE 15 20 1017.5 - 0.0 - - - - - - -
21/10:30pm 15.1 ENE 15 21 1017.7 - 0.0 - - - - - - -
21/10:00pm 15.4 E 13 18 1018.0 - 0.0 - - - - - - -
21/09:30pm 15.5 E 13 18 1018.1 - 0.0 - - - - - - -

Other Formats:

Comma delimited format used in spreadsheet applications
http://www.bom.gov.au/fwo/IDT60701/IDT60701.94842.axf

JavaScript Object Notation format (JSON) in row-major order
http://www.bom.gov.au/fwo/IDT60701/IDT60701.94842.json